sensor_id;sensor_type;location;lat;lon;timestamp;temperature;humidity
506;DHT22;551;48.524;9.056;2023-11-21T00:00:14;10.00;1.00
506;DHT22;551;48.524;9.056;2023-11-21T00:02:41;10.00;1.00
506;DHT22;551;48.524;9.056;2023-11-21T00:05:08;10.00;1.00
506;DHT22;551;48.524;9.056;2023-11-21T00:07:33;10.00;1.00
506;DHT22;551;48.524;9.056;2023-11-21T00:09:59;9.90;1.00
506;DHT22;551;48.524;9.056;2023-11-21T00:12:24;9.90;1.00
506;DHT22;551;48.524;9.056;2023-11-21T00:14:50;9.90;1.00
506;DHT22;551;48.524;9.056;2023-11-21T00:17:15;9.90;1.00
506;DHT22;551;48.524;9.056;2023-11-21T00:19:41;9.90;1.00
506;DHT22;551;48.524;9.056;2023-11-21T00:22:08;9.90;1.00
506;DHT22;551;48.524;9.056;2023-11-21T00:24:34;9.90;1.00
506;DHT22;551;48.524;9.056;2023-11-21T00:27:00;9.90;1.00
506;DHT22;551;48.524;9.056;2023-11-21T00:29:25;9.90;1.00
506;DHT22;551;48.524;9.056;2023-11-21T00:31:51;10.00;1.00
506;DHT22;551;48.524;9.056;2023-11-21T00:34:17;10.00;1.00
506;DHT22;551;48.524;9.056;2023-11-21T00:36:42;10.00;1.00
506;DHT22;551;48.524;9.056;2023-11-21T00:39:08;10.10;1.00
506;DHT22;551;48.524;9.056;2023-11-21T00:41:34;10.00;1.00
506;DHT22;551;48.524;9.056;2023-11-21T00:44:00;10.00;1.00
506;DHT22;551;48.524;9.056;2023-11-21T00:46:26;10.10;1.00
506;DHT22;551;48.524;9.056;2023-11-21T00:48:55;10.10;1.00
506;DHT22;551;48.524;9.056;2023-11-21T00:51:21;10.10;1.00
506;DHT22;551;48.524;9.056;2023-11-21T00:53:47;10.10;1.00
506;DHT22;551;48.524;9.056;2023-11-21T00:56:13;10.20;1.00
506;DHT22;551;48.524;9.056;2023-11-21T00:58:39;10.20;1.00
506;DHT22;551;48.524;9.056;2023-11-21T01:01:09;10.20;1.00
506;DHT22;551;48.524;9.056;2023-11-21T01:03:34;10.20;1.00
506;DHT22;551;48.524;9.056;2023-11-21T01:06:00;10.20;1.00
506;DHT22;551;48.524;9.056;2023-11-21T01:08:25;10.20;1.00
506;DHT22;551;48.524;9.056;2023-11-21T01:10:51;10.20;1.00
506;DHT22;551;48.524;9.056;2023-11-21T01:13:16;10.20;1.00
506;DHT22;551;48.524;9.056;2023-11-21T01:15:42;10.20;1.00
506;DHT22;551;48.524;9.056;2023-11-21T01:18:08;10.30;1.00
506;DHT22;551;48.524;9.056;2023-11-21T01:20:34;10.30;1.00
506;DHT22;551;48.524;9.056;2023-11-21T01:22:59;10.20;1.00
506;DHT22;551;48.524;9.056;2023-11-21T01:25:25;10.20;1.00
506;DHT22;551;48.524;9.056;2023-11-21T01:27:51;10.20;1.00
506;DHT22;551;48.524;9.056;2023-11-21T01:30:17;10.20;1.00
506;DHT22;551;48.524;9.056;2023-11-21T01:32:42;10.20;1.00
506;DHT22;551;48.524;9.056;2023-11-21T01:35:09;10.20;1.00
506;DHT22;551;48.524;9.056;2023-11-21T01:37:35;10.10;1.00
506;DHT22;551;48.524;9.056;2023-11-21T01:40:01;10.10;1.00
506;DHT22;551;48.524;9.056;2023-11-21T01:42:27;10.00;1.00
506;DHT22;551;48.524;9.056;2023-11-21T01:44:54;9.90;1.00
506;DHT22;551;48.524;9.056;2023-11-21T01:47:20;9.90;1.00
506;DHT22;551;48.524;9.056;2023-11-21T01:49:46;10.00;1.00
506;DHT22;551;48.524;9.056;2023-11-21T01:52:13;9.90;1.00
506;DHT22;551;48.524;9.056;2023-11-21T01:54:39;9.90;1.00
506;DHT22;551;48.524;9.056;2023-11-21T01:57:05;9.90;1.00
506;DHT22;551;48.524;9.056;2023-11-21T01:59:35;10.00;1.00
506;DHT22;551;48.524;9.056;2023-11-21T02:02:05;10.00;1.00
506;DHT22;551;48.524;9.056;2023-11-21T02:04:33;9.90;1.00
506;DHT22;551;48.524;9.056;2023-11-21T02:06:59;9.90;1.00
506;DHT22;551;48.524;9.056;2023-11-21T02:09:26;9.90;1.00
506;DHT22;551;48.524;9.056;2023-11-21T02:11:53;9.90;1.00
506;DHT22;551;48.524;9.056;2023-11-21T02:14:19;9.80;1.00
506;DHT22;551;48.524;9.056;2023-11-21T02:16:50;9.80;1.00
506;DHT22;551;48.524;9.056;2023-11-21T02:19:18;9.90;1.00
506;DHT22;551;48.524;9.056;2023-11-21T02:21:51;9.80;1.00
506;DHT22;551;48.524;9.056;2023-11-21T02:24:21;9.80;1.00
506;DHT22;551;48.524;9.056;2023-11-21T02:26:47;9.80;1.00
506;DHT22;551;48.524;9.056;2023-11-21T02:29:12;9.80;1.00
506;DHT22;551;48.524;9.056;2023-11-21T02:31:39;9.80;1.00
506;DHT22;551;48.524;9.056;2023-11-21T02:34:13;9.80;1.00
506;DHT22;551;48.524;9.056;2023-11-21T02:36:39;9.80;1.00
506;DHT22;551;48.524;9.056;2023-11-21T02:39:05;9.80;1.00
506;DHT22;551;48.524;9.056;2023-11-21T02:41:32;9.80;1.00
506;DHT22;551;48.524;9.056;2023-11-21T02:43:58;9.80;1.00
506;DHT22;551;48.524;9.056;2023-11-21T02:46:23;9.80;1.00
506;DHT22;551;48.524;9.056;2023-11-21T02:48:49;9.90;1.00
506;DHT22;551;48.524;9.056;2023-11-21T02:51:16;9.90;1.00
506;DHT22;551;48.524;9.056;2023-11-21T02:53:41;9.90;1.00
506;DHT22;551;48.524;9.056;2023-11-21T02:56:07;9.90;1.00
506;DHT22;551;48.524;9.056;2023-11-21T02:58:33;9.90;1.00
506;DHT22;551;48.524;9.056;2023-11-21T03:00:58;9.90;1.00
506;DHT22;551;48.524;9.056;2023-11-21T03:03:24;9.90;1.00
506;DHT22;551;48.524;9.056;2023-11-21T03:05:50;9.90;1.00
506;DHT22;551;48.524;9.056;2023-11-21T03:08:16;10.00;1.00
506;DHT22;551;48.524;9.056;2023-11-21T03:10:41;10.00;1.00
506;DHT22;551;48.524;9.056;2023-11-21T03:13:07;10.00;1.00
506;DHT22;551;48.524;9.056;2023-11-21T03:15:34;10.00;1.00
506;DHT22;551;48.524;9.056;2023-11-21T03:18:00;9.90;1.00
506;DHT22;551;48.524;9.056;2023-11-21T03:20:26;9.80;1.00
506;DHT22;551;48.524;9.056;2023-11-21T03:22:51;9.80;1.00
506;DHT22;551;48.524;9.056;2023-11-21T03:25:17;9.80;1.00
506;DHT22;551;48.524;9.056;2023-11-21T03:27:42;9.90;1.00
506;DHT22;551;48.524;9.056;2023-11-21T03:30:10;9.90;1.00
506;DHT22;551;48.524;9.056;2023-11-21T03:32:36;9.80;1.00
506;DHT22;551;48.524;9.056;2023-11-21T03:35:02;9.80;1.00
506;DHT22;551;48.524;9.056;2023-11-21T03:37:28;9.90;1.00
506;DHT22;551;48.524;9.056;2023-11-21T03:39:55;9.80;1.00
506;DHT22;551;48.524;9.056;2023-11-21T03:42:20;9.80;1.00
506;DHT22;551;48.524;9.056;2023-11-21T03:44:46;9.90;1.00
506;DHT22;551;48.524;9.056;2023-11-21T03:47:11;9.90;1.00
506;DHT22;551;48.524;9.056;2023-11-21T03:49:37;9.90;1.00
506;DHT22;551;48.524;9.056;2023-11-21T03:52:03;9.90;1.00
506;DHT22;551;48.524;9.056;2023-11-21T03:54:29;9.90;1.00
506;DHT22;551;48.524;9.056;2023-11-21T03:56:55;10.00;1.00
506;DHT22;551;48.524;9.056;2023-11-21T03:59:21;10.00;1.00
506;DHT22;551;48.524;9.056;2023-11-21T04:01:50;10.00;1.00
506;DHT22;551;48.524;9.056;2023-11-21T04:04:15;10.00;1.00
506;DHT22;551;48.524;9.056;2023-11-21T04:06:41;10.00;1.00
506;DHT22;551;48.524;9.056;2023-11-21T04:09:07;10.00;1.00
506;DHT22;551;48.524;9.056;2023-11-21T04:11:32;10.00;1.00
506;DHT22;551;48.524;9.056;2023-11-21T04:13:58;10.00;1.00
506;DHT22;551;48.524;9.056;2023-11-21T04:16:23;10.00;1.00
506;DHT22;551;48.524;9.056;2023-11-21T04:18:49;10.00;1.00
506;DHT22;551;48.524;9.056;2023-11-21T04:21:14;10.00;1.00
506;DHT22;551;48.524;9.056;2023-11-21T04:23:40;9.90;1.00
506;DHT22;551;48.524;9.056;2023-11-21T04:26:05;9.90;1.00
506;DHT22;551;48.524;9.056;2023-11-21T04:28:31;9.90;1.00
506;DHT22;551;48.524;9.056;2023-11-21T04:30:57;9.90;1.00
506;DHT22;551;48.524;9.056;2023-11-21T04:33:22;9.90;1.00
506;DHT22;551;48.524;9.056;2023-11-21T04:35:48;9.90;1.00
506;DHT22;551;48.524;9.056;2023-11-21T04:38:14;9.90;1.00
506;DHT22;551;48.524;9.056;2023-11-21T04:40:39;10.00;1.00
506;DHT22;551;48.524;9.056;2023-11-21T04:43:05;10.00;1.00
506;DHT22;551;48.524;9.056;2023-11-21T04:45:30;10.00;1.00
506;DHT22;551;48.524;9.056;2023-11-21T04:47:56;10.00;1.00
506;DHT22;551;48.524;9.056;2023-11-21T04:50:21;10.10;1.00
506;DHT22;551;48.524;9.056;2023-11-21T04:52:47;10.10;1.00
506;DHT22;551;48.524;9.056;2023-11-21T04:55:13;10.10;1.00
506;DHT22;551;48.524;9.056;2023-11-21T04:57:39;10.10;1.00
506;DHT22;551;48.524;9.056;2023-11-21T05:00:07;10.10;1.00
506;DHT22;551;48.524;9.056;2023-11-21T05:02:33;10.10;1.00
506;DHT22;551;48.524;9.056;2023-11-21T05:05:04;10.10;1.00
506;DHT22;551;48.524;9.056;2023-11-21T05:07:32;10.10;1.00
506;DHT22;551;48.524;9.056;2023-11-21T05:09:57;10.10;1.00
506;DHT22;551;48.524;9.056;2023-11-21T05:12:24;10.10;1.00
506;DHT22;551;48.524;9.056;2023-11-21T05:14:50;10.10;1.00
506;DHT22;551;48.524;9.056;2023-11-21T05:17:16;10.10;1.00
506;DHT22;551;48.524;9.056;2023-11-21T05:19:42;10.10;1.00
506;DHT22;551;48.524;9.056;2023-11-21T05:22:08;10.10;1.00
506;DHT22;551;48.524;9.056;2023-11-21T05:24:34;10.10;1.00
506;DHT22;551;48.524;9.056;2023-11-21T05:27:00;10.10;1.00
506;DHT22;551;48.524;9.056;2023-11-21T05:29:25;10.00;1.00
506;DHT22;551;48.524;9.056;2023-11-21T05:31:51;10.00;1.00
506;DHT22;551;48.524;9.056;2023-11-21T05:34:18;10.10;1.00
506;DHT22;551;48.524;9.056;2023-11-21T05:36:44;10.00;1.00
506;DHT22;551;48.524;9.056;2023-11-21T05:39:11;10.00;1.00
506;DHT22;551;48.524;9.056;2023-11-21T05:41:36;10.00;1.00
506;DHT22;551;48.524;9.056;2023-11-21T05:44:02;10.00;1.00
506;DHT22;551;48.524;9.056;2023-11-21T05:46:28;10.10;1.00
506;DHT22;551;48.524;9.056;2023-11-21T05:48:53;10.10;1.00
506;DHT22;551;48.524;9.056;2023-11-21T05:51:20;10.00;1.00
506;DHT22;551;48.524;9.056;2023-11-21T05:53:45;10.00;1.00
506;DHT22;551;48.524;9.056;2023-11-21T05:56:12;10.00;1.00
506;DHT22;551;48.524;9.056;2023-11-21T05:58:39;10.00;1.00
506;DHT22;551;48.524;9.056;2023-11-21T06:01:05;10.00;1.00
506;DHT22;551;48.524;9.056;2023-11-21T06:03:33;10.00;1.00
506;DHT22;551;48.524;9.056;2023-11-21T06:05:58;10.00;1.00
506;DHT22;551;48.524;9.056;2023-11-21T06:08:24;9.90;1.00
506;DHT22;551;48.524;9.056;2023-11-21T06:10:50;9.90;1.00
506;DHT22;551;48.524;9.056;2023-11-21T06:13:15;9.90;1.00
506;DHT22;551;48.524;9.056;2023-11-21T06:15:41;9.90;1.00
506;DHT22;551;48.524;9.056;2023-11-21T06:18:06;9.80;1.00
506;DHT22;551;48.524;9.056;2023-11-21T06:20:35;9.80;1.00
506;DHT22;551;48.524;9.056;2023-11-21T06:23:02;9.70;1.00
506;DHT22;551;48.524;9.056;2023-11-21T06:25:29;9.70;1.00
506;DHT22;551;48.524;9.056;2023-11-21T06:27:54;9.60;1.00
506;DHT22;551;48.524;9.056;2023-11-21T06:30:21;9.60;1.00
506;DHT22;551;48.524;9.056;2023-11-21T06:32:47;9.60;1.00
506;DHT22;551;48.524;9.056;2023-11-21T06:35:13;9.60;1.00
506;DHT22;551;48.524;9.056;2023-11-21T06:37:39;9.60;1.00
506;DHT22;551;48.524;9.056;2023-11-21T06:40:05;9.60;1.00
506;DHT22;551;48.524;9.056;2023-11-21T06:42:31;9.60;1.00
506;DHT22;551;48.524;9.056;2023-11-21T06:44:58;9.60;1.00
506;DHT22;551;48.524;9.056;2023-11-21T06:47:24;9.60;1.00
506;DHT22;551;48.524;9.056;2023-11-21T06:49:51;9.60;1.00
506;DHT22;551;48.524;9.056;2023-11-21T06:52:17;9.70;1.00
506;DHT22;551;48.524;9.056;2023-11-21T06:54:43;9.80;1.00
506;DHT22;551;48.524;9.056;2023-11-21T06:57:09;9.80;1.00
506;DHT22;551;48.524;9.056;2023-11-21T06:59:34;9.80;1.00
506;DHT22;551;48.524;9.056;2023-11-21T07:02:00;9.90;1.00
506;DHT22;551;48.524;9.056;2023-11-21T07:04:26;9.90;1.00
506;DHT22;551;48.524;9.056;2023-11-21T07:06:54;10.00;1.00
506;DHT22;551;48.524;9.056;2023-11-21T07:09:20;10.00;1.00
506;DHT22;551;48.524;9.056;2023-11-21T07:11:49;10.00;1.00
506;DHT22;551;48.524;9.056;2023-11-21T07:14:15;10.10;1.00
506;DHT22;551;48.524;9.056;2023-11-21T07:16:42;10.10;1.00
506;DHT22;551;48.524;9.056;2023-11-21T07:19:08;10.20;1.00
506;DHT22;551;48.524;9.056;2023-11-21T07:21:34;10.20;1.00
506;DHT22;551;48.524;9.056;2023-11-21T07:24:00;10.20;1.00
506;DHT22;551;48.524;9.056;2023-11-21T07:26:26;10.30;1.00
506;DHT22;551;48.524;9.056;2023-11-21T07:28:52;10.30;1.00
506;DHT22;551;48.524;9.056;2023-11-21T07:31:18;10.30;1.00
506;DHT22;551;48.524;9.056;2023-11-21T07:33:45;10.30;1.00
506;DHT22;551;48.524;9.056;2023-11-21T07:36:12;10.30;1.00
506;DHT22;551;48.524;9.056;2023-11-21T07:38:38;10.40;1.00
506;DHT22;551;48.524;9.056;2023-11-21T07:41:04;10.50;1.00
506;DHT22;551;48.524;9.056;2023-11-21T07:43:30;10.50;1.00
506;DHT22;551;48.524;9.056;2023-11-21T07:46:00;10.60;1.00
506;DHT22;551;48.524;9.056;2023-11-21T07:48:28;10.60;1.00
506;DHT22;551;48.524;9.056;2023-11-21T07:50:54;10.60;1.00
506;DHT22;551;48.524;9.056;2023-11-21T07:53:19;10.70;1.00
506;DHT22;551;48.524;9.056;2023-11-21T07:55:45;10.70;1.00
506;DHT22;551;48.524;9.056;2023-11-21T07:58:12;10.80;1.00
506;DHT22;551;48.524;9.056;2023-11-21T08:00:38;10.80;1.00
506;DHT22;551;48.524;9.056;2023-11-21T08:03:05;10.80;1.00
506;DHT22;551;48.524;9.056;2023-11-21T08:05:31;10.90;1.00
506;DHT22;551;48.524;9.056;2023-11-21T08:07:57;10.90;1.00
506;DHT22;551;48.524;9.056;2023-11-21T08:10:22;10.90;1.00
506;DHT22;551;48.524;9.056;2023-11-21T08:12:48;10.90;1.00
506;DHT22;551;48.524;9.056;2023-11-21T08:15:14;11.00;1.00
506;DHT22;551;48.524;9.056;2023-11-21T08:17:39;11.00;1.00
506;DHT22;551;48.524;9.056;2023-11-21T08:20:06;11.00;1.00
506;DHT22;551;48.524;9.056;2023-11-21T08:22:33;10.90;1.00
506;DHT22;551;48.524;9.056;2023-11-21T08:24:59;10.80;1.00
506;DHT22;551;48.524;9.056;2023-11-21T08:27:25;10.80;1.00
506;DHT22;551;48.524;9.056;2023-11-21T08:29:50;10.80;1.00
506;DHT22;551;48.524;9.056;2023-11-21T08:32:17;10.90;1.00
506;DHT22;551;48.524;9.056;2023-11-21T08:34:43;11.00;1.00
506;DHT22;551;48.524;9.056;2023-11-21T08:37:10;11.00;1.00
506;DHT22;551;48.524;9.056;2023-11-21T08:39:37;11.00;1.00
506;DHT22;551;48.524;9.056;2023-11-21T08:42:03;11.00;1.00
506;DHT22;551;48.524;9.056;2023-11-21T08:44:29;11.10;1.00
506;DHT22;551;48.524;9.056;2023-11-21T08:46:55;11.10;1.00
506;DHT22;551;48.524;9.056;2023-11-21T08:49:21;11.10;1.00
506;DHT22;551;48.524;9.056;2023-11-21T08:51:46;11.10;1.00
506;DHT22;551;48.524;9.056;2023-11-21T08:54:12;11.20;1.00
506;DHT22;551;48.524;9.056;2023-11-21T08:56:38;11.20;1.00
506;DHT22;551;48.524;9.056;2023-11-21T08:59:03;11.20;1.00
506;DHT22;551;48.524;9.056;2023-11-21T09:01:29;11.30;1.00
506;DHT22;551;48.524;9.056;2023-11-21T09:03:57;11.40;1.00
506;DHT22;551;48.524;9.056;2023-11-21T09:06:23;11.50;1.00
506;DHT22;551;48.524;9.056;2023-11-21T09:08:48;11.60;1.00
506;DHT22;551;48.524;9.056;2023-11-21T09:11:14;11.70;1.00
506;DHT22;551;48.524;9.056;2023-11-21T09:13:39;11.70;1.00
506;DHT22;551;48.524;9.056;2023-11-21T09:16:05;11.80;1.00
506;DHT22;551;48.524;9.056;2023-11-21T09:18:31;11.90;1.00
506;DHT22;551;48.524;9.056;2023-11-21T09:20:57;12.10;1.00
506;DHT22;551;48.524;9.056;2023-11-21T09:23:23;12.30;1.00
506;DHT22;551;48.524;9.056;2023-11-21T09:25:49;12.40;1.00
506;DHT22;551;48.524;9.056;2023-11-21T09:28:16;12.70;1.00
506;DHT22;551;48.524;9.056;2023-11-21T09:30:42;13.10;1.00
506;DHT22;551;48.524;9.056;2023-11-21T09:33:09;14.20;1.00
506;DHT22;551;48.524;9.056;2023-11-21T09:35:38;15.70;1.00
506;DHT22;551;48.524;9.056;2023-11-21T09:38:04;17.70;1.00
506;DHT22;551;48.524;9.056;2023-11-21T09:40:36;19.10;1.00
506;DHT22;551;48.524;9.056;2023-11-21T09:43:14;19.40;1.00
506;DHT22;551;48.524;9.056;2023-11-21T09:45:49;19.30;1.00
506;DHT22;551;48.524;9.056;2023-11-21T09:48:19;18.80;1.00
506;DHT22;551;48.524;9.056;2023-11-21T09:50:47;18.00;1.00
506;DHT22;551;48.524;9.056;2023-11-21T09:53:19;17.50;1.00
506;DHT22;551;48.524;9.056;2023-11-21T09:55:52;16.90;1.00
506;DHT22;551;48.524;9.056;2023-11-21T09:58:18;16.10;1.00
506;DHT22;551;48.524;9.056;2023-11-21T10:00:48;15.40;1.00
506;DHT22;551;48.524;9.056;2023-11-21T10:03:14;15.00;1.00
506;DHT22;551;48.524;9.056;2023-11-21T10:05:42;14.70;1.00
506;DHT22;551;48.524;9.056;2023-11-21T10:08:09;14.50;1.00
506;DHT22;551;48.524;9.056;2023-11-21T10:10:37;14.00;1.00
506;DHT22;551;48.524;9.056;2023-11-21T10:13:05;13.70;1.00
506;DHT22;551;48.524;9.056;2023-11-21T10:15:33;13.70;1.00
506;DHT22;551;48.524;9.056;2023-11-21T10:18:05;13.50;1.00
506;DHT22;551;48.524;9.056;2023-11-21T10:20:34;13.60;1.00
506;DHT22;551;48.524;9.056;2023-11-21T10:23:00;13.60;1.00
506;DHT22;551;48.524;9.056;2023-11-21T10:25:30;13.60;1.00
506;DHT22;551;48.524;9.056;2023-11-21T10:28:02;13.70;1.00
506;DHT22;551;48.524;9.056;2023-11-21T10:30:38;13.80;1.00
506;DHT22;551;48.524;9.056;2023-11-21T10:33:07;13.70;1.00
506;DHT22;551;48.524;9.056;2023-11-21T10:35:49;13.70;1.00
506;DHT22;551;48.524;9.056;2023-11-21T10:38:22;13.60;1.00
506;DHT22;551;48.524;9.056;2023-11-21T10:40:50;13.60;1.00
506;DHT22;551;48.524;9.056;2023-11-21T10:43:16;13.50;1.00
506;DHT22;551;48.524;9.056;2023-11-21T10:45:42;13.20;1.00
506;DHT22;551;48.524;9.056;2023-11-21T10:48:13;13.10;1.00
506;DHT22;551;48.524;9.056;2023-11-21T10:50:46;13.00;1.00
506;DHT22;551;48.524;9.056;2023-11-21T10:53:12;12.70;1.00
506;DHT22;551;48.524;9.056;2023-11-21T10:55:38;12.70;1.00
506;DHT22;551;48.524;9.056;2023-11-21T10:58:04;12.60;1.00
506;DHT22;551;48.524;9.056;2023-11-21T11:00:32;12.60;1.00
506;DHT22;551;48.524;9.056;2023-11-21T11:02:59;12.60;1.00
506;DHT22;551;48.524;9.056;2023-11-21T11:05:27;12.50;1.00
506;DHT22;551;48.524;9.056;2023-11-21T11:08:04;12.60;1.00
506;DHT22;551;48.524;9.056;2023-11-21T11:10:31;12.50;1.00
506;DHT22;551;48.524;9.056;2023-11-21T11:12:57;12.50;1.00
506;DHT22;551;48.524;9.056;2023-11-21T11:15:25;12.60;1.00
506;DHT22;551;48.524;9.056;2023-11-21T11:17:50;12.60;1.00
506;DHT22;551;48.524;9.056;2023-11-21T11:20:17;12.50;1.00
506;DHT22;551;48.524;9.056;2023-11-21T11:25:52;12.30;1.00
506;DHT22;551;48.524;9.056;2023-11-21T11:28:27;12.40;1.00
506;DHT22;551;48.524;9.056;2023-11-21T11:31:04;12.30;1.00
506;DHT22;551;48.524;9.056;2023-11-21T11:33:59;12.30;1.00
506;DHT22;551;48.524;9.056;2023-11-21T11:37:00;12.20;1.00
506;DHT22;551;48.524;9.056;2023-11-21T11:39:35;12.20;1.00
506;DHT22;551;48.524;9.056;2023-11-21T11:42:03;12.20;1.00
506;DHT22;551;48.524;9.056;2023-11-21T11:50:20;12.10;1.00
506;DHT22;551;48.524;9.056;2023-11-21T11:52:47;12.20;1.00
506;DHT22;551;48.524;9.056;2023-11-21T11:55:15;12.20;1.00
506;DHT22;551;48.524;9.056;2023-11-21T11:57:50;12.20;1.00
506;DHT22;551;48.524;9.056;2023-11-21T12:00:20;12.30;1.00
506;DHT22;551;48.524;9.056;2023-11-21T12:02:48;12.30;1.00
506;DHT22;551;48.524;9.056;2023-11-21T12:05:16;12.50;1.00
506;DHT22;551;48.524;9.056;2023-11-21T12:10:13;12.70;1.00
506;DHT22;551;48.524;9.056;2023-11-21T12:12:42;12.70;1.00
506;DHT22;551;48.524;9.056;2023-11-21T12:15:09;12.60;1.00
506;DHT22;551;48.524;9.056;2023-11-21T12:17:34;12.40;1.00
506;DHT22;551;48.524;9.056;2023-11-21T12:20:04;12.50;1.00
506;DHT22;551;48.524;9.056;2023-11-21T12:22:31;12.50;1.00
506;DHT22;551;48.524;9.056;2023-11-21T12:24:57;12.60;1.00
506;DHT22;551;48.524;9.056;2023-11-21T12:27:22;12.50;1.00
506;DHT22;551;48.524;9.056;2023-11-21T12:29:48;12.60;1.00
506;DHT22;551;48.524;9.056;2023-11-21T12:32:14;12.70;1.00
506;DHT22;551;48.524;9.056;2023-11-21T12:34:40;12.70;1.00
506;DHT22;551;48.524;9.056;2023-11-21T12:37:06;12.90;1.00
506;DHT22;551;48.524;9.056;2023-11-21T12:39:31;13.20;1.00
506;DHT22;551;48.524;9.056;2023-11-21T12:41:57;13.30;1.00
506;DHT22;551;48.524;9.056;2023-11-21T12:44:23;13.30;1.00
506;DHT22;551;48.524;9.056;2023-11-21T12:46:49;13.30;1.00
506;DHT22;551;48.524;9.056;2023-11-21T12:49:15;13.20;1.00
506;DHT22;551;48.524;9.056;2023-11-21T12:51:45;13.00;1.00
506;DHT22;551;48.524;9.056;2023-11-21T12:54:11;12.90;1.00
506;DHT22;551;48.524;9.056;2023-11-21T12:56:41;12.70;1.00
506;DHT22;551;48.524;9.056;2023-11-21T12:59:06;12.60;1.00
506;DHT22;551;48.524;9.056;2023-11-21T13:01:32;12.50;1.00
506;DHT22;551;48.524;9.056;2023-11-21T13:03:59;12.20;1.00
506;DHT22;551;48.524;9.056;2023-11-21T13:06:25;12.20;1.00
506;DHT22;551;48.524;9.056;2023-11-21T13:08:51;12.10;1.00
506;DHT22;551;48.524;9.056;2023-11-21T13:11:17;12.00;1.00
506;DHT22;551;48.524;9.056;2023-11-21T13:13:43;11.90;1.00
506;DHT22;551;48.524;9.056;2023-11-21T13:16:09;11.80;1.00
506;DHT22;551;48.524;9.056;2023-11-21T13:18:35;11.70;1.00
506;DHT22;551;48.524;9.056;2023-11-21T13:21:03;11.70;1.00
506;DHT22;551;48.524;9.056;2023-11-21T13:23:39;11.70;1.00
506;DHT22;551;48.524;9.056;2023-11-21T13:26:07;11.70;1.00
506;DHT22;551;48.524;9.056;2023-11-21T13:28:34;11.80;1.00
506;DHT22;551;48.524;9.056;2023-11-21T13:31:01;11.90;1.00
506;DHT22;551;48.524;9.056;2023-11-21T13:33:29;12.00;1.00
506;DHT22;551;48.524;9.056;2023-11-21T13:35:55;12.00;1.00
506;DHT22;551;48.524;9.056;2023-11-21T13:38:22;12.10;1.00
506;DHT22;551;48.524;9.056;2023-11-21T13:40:55;12.10;1.00
506;DHT22;551;48.524;9.056;2023-11-21T13:43:25;12.00;1.00
506;DHT22;551;48.524;9.056;2023-11-21T13:45:53;11.90;1.00
506;DHT22;551;48.524;9.056;2023-11-21T13:48:37;11.90;1.00
506;DHT22;551;48.524;9.056;2023-11-21T13:51:14;11.80;1.00
506;DHT22;551;48.524;9.056;2023-11-21T13:54:02;11.80;1.00
506;DHT22;551;48.524;9.056;2023-11-21T13:56:30;11.80;1.00
506;DHT22;551;48.524;9.056;2023-11-21T13:58:57;11.70;1.00
506;DHT22;551;48.524;9.056;2023-11-21T14:01:26;11.70;1.00
506;DHT22;551;48.524;9.056;2023-11-21T14:03:54;11.70;1.00
506;DHT22;551;48.524;9.056;2023-11-21T14:06:28;11.80;1.00
506;DHT22;551;48.524;9.056;2023-11-21T14:09:00;11.80;1.00
506;DHT22;551;48.524;9.056;2023-11-21T14:11:32;11.80;1.00
506;DHT22;551;48.524;9.056;2023-11-21T14:13:57;11.80;1.00
506;DHT22;551;48.524;9.056;2023-11-21T14:16:25;11.90;1.00
506;DHT22;551;48.524;9.056;2023-11-21T14:18:50;11.90;1.00
506;DHT22;551;48.524;9.056;2023-11-21T14:21:26;12.00;1.00
506;DHT22;551;48.524;9.056;2023-11-21T14:23:52;12.00;1.00
506;DHT22;551;48.524;9.056;2023-11-21T14:26:19;12.00;1.00
506;DHT22;551;48.524;9.056;2023-11-21T14:28:46;12.10;1.00
506;DHT22;551;48.524;9.056;2023-11-21T14:31:14;12.10;1.00
506;DHT22;551;48.524;9.056;2023-11-21T14:33:43;12.10;1.00
506;DHT22;551;48.524;9.056;2023-11-21T14:36:12;12.10;1.00
506;DHT22;551;48.524;9.056;2023-11-21T14:38:37;12.10;1.00
506;DHT22;551;48.524;9.056;2023-11-21T14:41:05;12.00;1.00
506;DHT22;551;48.524;9.056;2023-11-21T14:43:36;11.90;1.00
506;DHT22;551;48.524;9.056;2023-11-21T14:46:03;11.80;1.00
506;DHT22;551;48.524;9.056;2023-11-21T14:48:32;11.70;1.00
506;DHT22;551;48.524;9.056;2023-11-21T14:51:11;11.50;1.00
506;DHT22;551;48.524;9.056;2023-11-21T14:53:58;11.50;1.00
506;DHT22;551;48.524;9.056;2023-11-21T14:56:33;11.40;1.00
506;DHT22;551;48.524;9.056;2023-11-21T14:59:01;11.40;1.00
506;DHT22;551;48.524;9.056;2023-11-21T15:01:41;11.30;1.00
506;DHT22;551;48.524;9.056;2023-11-21T15:04:18;11.10;1.00
506;DHT22;551;48.524;9.056;2023-11-21T15:07:04;11.10;1.00
506;DHT22;551;48.524;9.056;2023-11-21T15:09:30;11.00;1.00
506;DHT22;551;48.524;9.056;2023-11-21T15:12:07;11.00;1.00
506;DHT22;551;48.524;9.056;2023-11-21T15:14:49;10.90;1.00
506;DHT22;551;48.524;9.056;2023-11-21T15:17:18;10.90;1.00
506;DHT22;551;48.524;9.056;2023-11-21T15:19:52;10.90;1.00
506;DHT22;551;48.524;9.056;2023-11-21T15:22:18;10.90;1.00
506;DHT22;551;48.524;9.056;2023-11-21T15:24:44;11.00;1.00
506;DHT22;551;48.524;9.056;2023-11-21T15:27:12;10.90;1.00
506;DHT22;551;48.524;9.056;2023-11-21T15:29:41;11.00;1.00
506;DHT22;551;48.524;9.056;2023-11-21T15:32:08;11.00;1.00
506;DHT22;551;48.524;9.056;2023-11-21T15:34:34;11.00;1.00
506;DHT22;551;48.524;9.056;2023-11-21T15:37:00;11.00;1.00
506;DHT22;551;48.524;9.056;2023-11-21T15:39:26;11.00;1.00
506;DHT22;551;48.524;9.056;2023-11-21T15:42:03;11.00;1.00
506;DHT22;551;48.524;9.056;2023-11-21T15:44:29;11.00;1.00
506;DHT22;551;48.524;9.056;2023-11-21T15:46:56;11.00;1.00
506;DHT22;551;48.524;9.056;2023-11-21T15:49:22;10.90;1.00
506;DHT22;551;48.524;9.056;2023-11-21T15:51:58;10.90;1.00
506;DHT22;551;48.524;9.056;2023-11-21T15:54:31;10.90;1.00
506;DHT22;551;48.524;9.056;2023-11-21T15:56:59;10.90;1.00
506;DHT22;551;48.524;9.056;2023-11-21T15:59:26;10.90;1.00
506;DHT22;551;48.524;9.056;2023-11-21T16:01:57;10.90;1.00
506;DHT22;551;48.524;9.056;2023-11-21T16:04:23;11.00;1.00
506;DHT22;551;48.524;9.056;2023-11-21T16:06:52;11.00;1.00
506;DHT22;551;48.524;9.056;2023-11-21T16:09:18;11.00;1.00
506;DHT22;551;48.524;9.056;2023-11-21T16:11:59;10.90;1.00
506;DHT22;551;48.524;9.056;2023-11-21T16:14:27;10.90;1.00
506;DHT22;551;48.524;9.056;2023-11-21T16:17:00;10.90;1.00
506;DHT22;551;48.524;9.056;2023-11-21T16:19:26;10.90;1.00
506;DHT22;551;48.524;9.056;2023-11-21T16:21:51;10.90;1.00
506;DHT22;551;48.524;9.056;2023-11-21T16:24:18;10.90;1.00
506;DHT22;551;48.524;9.056;2023-11-21T16:26:44;10.90;1.00
506;DHT22;551;48.524;9.056;2023-11-21T16:29:11;10.90;1.00
506;DHT22;551;48.524;9.056;2023-11-21T16:31:38;10.90;1.00
506;DHT22;551;48.524;9.056;2023-11-21T16:34:14;10.90;1.00
506;DHT22;551;48.524;9.056;2023-11-21T16:36:41;10.90;1.00
506;DHT22;551;48.524;9.056;2023-11-21T16:39:10;10.90;1.00
506;DHT22;551;48.524;9.056;2023-11-21T16:41:38;10.90;1.00
506;DHT22;551;48.524;9.056;2023-11-21T16:44:04;10.90;1.00
506;DHT22;551;48.524;9.056;2023-11-21T16:46:30;10.90;1.00
506;DHT22;551;48.524;9.056;2023-11-21T16:48:56;10.90;1.00
506;DHT22;551;48.524;9.056;2023-11-21T16:51:21;10.90;1.00
506;DHT22;551;48.524;9.056;2023-11-21T16:53:47;10.90;1.00
506;DHT22;551;48.524;9.056;2023-11-21T16:56:12;10.90;1.00
506;DHT22;551;48.524;9.056;2023-11-21T16:58:38;10.90;1.00
506;DHT22;551;48.524;9.056;2023-11-21T17:01:03;10.90;1.00
506;DHT22;551;48.524;9.056;2023-11-21T17:03:29;10.90;1.00
506;DHT22;551;48.524;9.056;2023-11-21T17:05:56;10.80;1.00
506;DHT22;551;48.524;9.056;2023-11-21T17:08:22;10.80;1.00